Time;durP1;ratioP1;P1;durP2;ratioP2;P2;SDS_P1;SDS_P2;PMS_P1;PMS_P2;Temp;Humidity;BMP_temperature;BMP_pressure;BME280_temperature;BME280_humidity;BME280_pressure;Samples;Min_cycle;Max_cycle;Signal;HPM_P1;HPM_P2
2022/05/25 00:02:23;;;;;;;1.60;1.50;;;13.20;72.40;;;;;;601578;238;26865;-70
2022/05/25 00:04:51;;;;;;;1.50;1.40;;;13.20;73.00;;;;;;602824;237;26672;-70
2022/05/25 00:07:18;;;;;;;1.27;1.17;;;13.20;72.50;;;;;;609703;235;26605;-70
2022/05/25 00:09:46;;;;;;;1.50;1.40;;;13.20;72.40;;;;;;603873;234;26594;-70
2022/05/25 00:12:15;;;;;;;1.77;1.67;;;13.20;72.30;;;;;;605750;234;26634;-70
2022/05/25 00:14:42;;;;;;;2.22;1.52;;;13.20;72.50;;;;;;604475;238;26644;-70
2022/05/25 00:17:10;;;;;;;1.50;1.40;;;13.20;72.40;;;;;;603085;236;26637;-71
2022/05/25 00:22:10;;;;;;;1.83;1.42;;;13.20;73.50;;;;;;604985;236;26860;-70
2022/05/25 00:24:37;;;;;;;1.85;1.30;;;13.20;72.70;;;;;;601973;236;26836;-70
2022/05/25 00:27:04;;;;;;;2.55;1.33;;;13.10;73.30;;;;;;610828;235;26851;-70
2022/05/25 00:29:31;;;;;;;5.43;1.80;;;13.10;73.60;;;;;;602056;238;26581;-66
2022/05/25 00:31:59;;;;;;;2.83;1.73;;;13.20;73.80;;;;;;595035;239;26630;-68
2022/05/25 00:34:26;;;;;;;3.95;1.58;;;13.20;73.80;;;;;;585983;241;26638;-68
2022/05/25 00:36:53;;;;;;;5.30;1.52;;;13.20;74.10;;;;;;595750;238;26843;-68
2022/05/25 00:39:23;;;;;;;3.35;1.67;;;13.10;74.50;;;;;;593550;240;26674;-68
2022/05/25 00:41:49;;;;;;;2.53;1.80;;;13.10;74.40;;;;;;607730;236;26852;-68
2022/05/25 00:44:14;;;;;;;1.95;1.50;;;13.20;74.20;;;;;;604422;238;26578;-68
2022/05/25 00:46:42;;;;;;;5.20;1.77;;;13.20;74.60;;;;;;602333;237;26833;-68
2022/05/25 00:49:13;;;;;;;1.50;1.40;;;13.10;75.20;;;;;;591658;240;26569;-69
2022/05/25 00:51:41;;;;;;;2.62;1.50;;;13.00;75.50;;;;;;592278;240;26573;-68
2022/05/25 00:54:09;;;;;;;2.58;1.50;;;13.00;75.70;;;;;;588483;243;26675;-68
2022/05/25 00:56:37;;;;;;;1.77;1.40;;;12.90;75.50;;;;;;594580;239;26666;-68
2022/05/25 00:59:12;;;;;;;1.48;1.20;;;12.90;76.30;;;;;;595609;238;26689;-68
2022/05/25 01:01:40;;;;;;;1.45;1.30;;;12.80;76.80;;;;;;597492;239;26737;-68
2022/05/25 01:04:08;;;;;;;1.98;1.50;;;12.80;77.40;;;;;;594303;239;26675;-68
2022/05/25 01:06:36;;;;;;;2.00;1.40;;;12.70;77.60;;;;;;593623;240;26631;-68
2022/05/25 01:09:04;;;;;;;3.78;1.48;;;12.70;77.60;;;;;;593456;238;26661;-68
2022/05/25 01:11:35;;;;;;;1.62;1.52;;;12.80;77.20;;;;;;596954;239;26697;-68
2022/05/25 01:14:04;;;;;;;2.58;1.45;;;12.80;77.20;;;;;;594714;238;26689;-68
2022/05/25 01:16:46;;;;;;;1.15;1.15;;;12.70;77.50;;;;;;594879;238;26719;-68
2022/05/25 01:19:19;;;;;;;3.03;1.30;;;12.70;77.30;;;;;;595579;238;26833;-68
2022/05/25 01:21:47;;;;;;;2.08;1.40;;;12.70;77.80;;;;;;594948;239;26682;-68
2022/05/25 01:24:18;;;;;;;2.60;1.83;;;12.70;77.40;;;;;;597321;238;26923;-68
2022/05/25 01:26:54;;;;;;;2.00;1.50;;;12.70;78.00;;;;;;595243;238;26609;-68
2022/05/25 01:29:38;;;;;;;4.28;1.40;;;12.70;78.00;;;;;;593339;237;26825;-68
2022/05/25 01:32:21;;;;;;;2.85;1.42;;;12.70;78.00;;;;;;596143;238;26614;-69
2022/05/25 01:34:50;;;;;;;2.45;1.52;;;12.70;77.90;;;;;;593778;239;26885;-68
2022/05/25 01:37:35;;;;;;;2.05;1.20;;;12.70;77.80;;;;;;594706;239;26606;-68
2022/05/25 01:40:09;;;;;;;1.58;1.40;;;12.70;77.90;;;;;;591685;240;26626;-68
2022/05/25 01:42:39;;;;;;;3.60;1.45;;;12.80;77.40;;;;;;595090;239;26853;-68
2022/05/25 01:45:06;;;;;;;2.58;1.55;;;12.80;77.30;;;;;;595003;239;26643;-68
2022/05/25 01:47:34;;;;;;;1.40;1.30;;;12.80;77.30;;;;;;593066;242;26602;-68
2022/05/25 01:50:02;;;;;;;2.17;1.27;;;12.80;77.00;;;;;;595198;239;27346;-68
2022/05/25 01:52:31;;;;;;;3.25;1.45;;;12.90;76.80;;;;;;595523;239;26650;-68
2022/05/25 01:54:59;;;;;;;2.95;1.62;;;12.90;76.80;;;;;;595367;239;26939;-68
2022/05/25 01:57:27;;;;;;;2.55;1.35;;;12.90;76.80;;;;;;595956;239;26665;-68
2022/05/25 01:59:54;;;;;;;3.75;1.87;;;12.90;77.40;;;;;;593108;240;26893;-68
2022/05/25 02:04:54;;;;;;;1.67;1.45;;;12.90;77.20;;;;;;593794;240;26688;-68
2022/05/25 02:07:41;;;;;;;1.92;1.40;;;12.90;77.40;;;;;;597968;234;26643;-68
2022/05/25 02:10:28;;;;;;;1.58;1.48;;;12.90;77.30;;;;;;591034;239;26644;-68
2022/05/25 02:13:05;;;;;;;1.30;1.20;;;12.90;77.30;;;;;;593955;239;26858;-68
2022/05/25 02:15:43;;;;;;;1.40;1.30;;;12.90;77.70;;;;;;595367;239;26616;-68
2022/05/25 02:18:12;;;;;;;2.20;1.70;;;12.90;77.70;;;;;;596863;238;26617;-67
2022/05/25 02:20:45;;;;;;;1.50;1.37;;;12.90;77.60;;;;;;595035;239;26636;-67
2022/05/25 02:23:23;;;;;;;1.20;1.20;;;12.90;77.50;;;;;;597964;239;27102;-67
2022/05/25 02:25:51;;;;;;;3.60;1.35;;;13.00;76.60;;;;;;593667;240;26869;-67
2022/05/25 02:28:20;;;;;;;1.25;1.25;;;12.90;77.80;;;;;;596837;236;26647;-68
2022/05/25 02:30:47;;;;;;;3.05;1.60;;;12.90;77.80;;;;;;596778;238;26940;-67
2022/05/25 02:33:16;;;;;;;1.60;1.50;;;12.90;78.30;;;;;;594595;239;26713;-68
2022/05/25 02:35:43;;;;;;;1.30;1.30;;;12.80;78.40;;;;;;596331;238;26696;-68
2022/05/25 02:38:10;;;;;;;1.50;1.40;;;12.80;78.40;;;;;;594258;239;26852;-68
2022/05/25 02:40:38;;;;;;;2.00;1.60;;;12.80;79.00;;;;;;593531;238;26569;-68
2022/05/25 02:43:06;;;;;;;1.25;1.25;;;12.80;79.20;;;;;;597316;238;26876;-68
2022/05/25 02:45:32;;;;;;;1.50;1.40;;;12.90;79.10;;;;;;603605;235;27170;-68
2022/05/25 02:47:59;;;;;;;1.30;1.23;;;13.10;78.90;;;;;;603377;237;26586;-67
2022/05/25 02:50:26;;;;;;;2.08;1.37;;;13.20;78.80;;;;;;605312;234;26590;-68
2022/05/25 02:52:56;;;;;;;1.42;1.33;;;13.40;78.70;;;;;;605289;235;26549;-67
2022/05/25 02:55:22;;;;;;;1.50;1.40;;;13.50;77.30;;;;;;604591;236;26550;-67
2022/05/25 02:57:50;;;;;;;1.50;1.40;;;13.50;76.80;;;;;;604711;235;26582;-68
2022/05/25 03:00:18;;;;;;;1.80;1.40;;;13.60;76.90;;;;;;606016;235;26559;-68
2022/05/25 03:02:46;;;;;;;2.05;1.60;;;13.60;76.60;;;;;;608752;235;26652;-68
2022/05/25 03:05:13;;;;;;;1.90;1.50;;;13.60;76.50;;;;;;604089;236;26629;-68
2022/05/25 03:07:41;;;;;;;1.25;1.25;;;13.80;75.50;;;;;;604376;236;26660;-68
2022/05/25 03:10:10;;;;;;;1.52;1.45;;;13.80;75.40;;;;;;604329;235;26639;-67
2022/05/25 03:12:37;;;;;;;1.70;1.60;;;13.80;75.40;;;;;;604865;235;26638;-67
2022/05/25 03:15:05;;;;;;;1.67;1.45;;;13.90;75.10;;;;;;605505;235;27009;-68
2022/05/25 03:17:33;;;;;;;1.98;1.48;;;13.90;74.90;;;;;;604699;235;26635;-68
2022/05/25 03:20:00;;;;;;;1.48;1.40;;;13.90;75.00;;;;;;605358;235;26865;-68
2022/05/25 03:22:27;;;;;;;1.52;1.42;;;14.00;74.90;;;;;;603646;236;26668;-68
2022/05/25 03:24:54;;;;;;;1.40;1.30;;;14.00;75.00;;;;;;607048;235;26861;-68
2022/05/25 03:27:21;;;;;;;1.48;1.42;;;14.00;75.00;;;;;;604676;235;26666;-68
2022/05/25 03:29:50;;;;;;;2.58;1.73;;;14.10;75.20;;;;;;604073;235;26872;-67
2022/05/25 03:32:16;;;;;;;2.05;1.40;;;14.10;75.00;;;;;;605562;231;26630;-68
2022/05/25 03:34:43;;;;;;;2.17;1.60;;;14.10;75.10;;;;;;605873;235;26875;-68
2022/05/25 03:37:11;;;;;;;1.58;1.48;;;14.10;74.70;;;;;;603765;235;26633;-68
2022/05/25 03:39:39;;;;;;;1.50;1.40;;;14.00;74.60;;;;;;606744;234;26625;-68
2022/05/25 03:42:08;;;;;;;1.40;1.37;;;14.10;74.60;;;;;;606963;235;26638;-68
2022/05/25 03:44:35;;;;;;;1.70;1.45;;;14.10;74.60;;;;;;606061;235;26640;-67
2022/05/25 03:47:02;;;;;;;1.70;1.60;;;14.10;74.00;;;;;;605735;235;26876;-67
2022/05/25 03:49:29;;;;;;;1.90;1.60;;;14.20;73.90;;;;;;605692;235;26554;-67
2022/05/25 03:51:56;;;;;;;1.70;1.35;;;14.20;73.70;;;;;;606030;235;26599;-68
2022/05/25 03:54:24;;;;;;;1.73;1.50;;;14.20;73.30;;;;;;606478;233;26651;-68
2022/05/25 03:56:52;;;;;;;1.58;1.48;;;14.10;73.40;;;;;;606861;234;26864;-68
2022/05/25 03:59:18;;;;;;;1.77;1.60;;;14.10;72.60;;;;;;605234;236;26589;-68
2022/05/25 04:01:45;;;;;;;1.85;1.52;;;14.20;72.20;;;;;;605205;235;26889;-68
2022/05/25 04:04:12;;;;;;;1.77;1.67;;;14.20;71.70;;;;;;606334;234;26657;-68
2022/05/25 04:06:40;;;;;;;2.45;1.30;;;14.20;71.10;;;;;;605338;235;26948;-68
2022/05/25 04:09:09;;;;;;;1.62;1.52;;;14.30;70.50;;;;;;607463;235;26638;-68
2022/05/25 04:11:34;;;;;;;1.30;1.30;;;14.40;70.70;;;;;;608827;235;27321;-68
2022/05/25 04:14:01;;;;;;;1.92;1.60;;;14.40;70.20;;;;;;604149;235;26614;-68
2022/05/25 04:16:29;;;;;;;1.58;1.42;;;14.40;69.90;;;;;;605374;235;26625;-68
2022/05/25 04:18:56;;;;;;;1.95;1.30;;;14.50;69.90;;;;;;605025;235;26590;-68
2022/05/25 04:21:24;;;;;;;1.70;1.60;;;14.40;69.80;;;;;;604648;236;26655;-67
2022/05/25 04:23:52;;;;;;;1.62;1.52;;;14.50;69.60;;;;;;604900;235;26677;-68
2022/05/25 04:26:19;;;;;;;1.58;1.48;;;14.60;68.80;;;;;;602971;236;26844;-68
2022/05/25 04:28:46;;;;;;;2.15;1.60;;;14.70;68.50;;;;;;606330;235;26587;-67
2022/05/25 04:31:14;;;;;;;1.87;1.77;;;14.70;68.20;;;;;;604963;235;26871;-67
2022/05/25 04:33:42;;;;;;;2.67;2.12;;;14.60;66.60;;;;;;605556;234;26675;-67
2022/05/25 04:36:09;;;;;;;1.50;1.40;;;14.60;68.00;;;;;;606149;235;26619;-67
2022/05/25 04:38:37;;;;;;;1.60;1.50;;;14.60;67.60;;;;;;603313;236;26629;-67
2022/05/25 04:41:05;;;;;;;1.40;1.40;;;14.60;67.70;;;;;;607081;235;26644;-67
2022/05/25 04:43:33;;;;;;;1.80;1.50;;;14.60;67.30;;;;;;605043;235;26664;-67
2022/05/25 04:46:03;;;;;;;1.80;1.70;;;14.60;67.30;;;;;;605182;235;26700;-68
2022/05/25 04:48:28;;;;;;;2.90;1.55;;;14.60;67.40;;;;;;606427;235;26610;-67
2022/05/25 04:50:56;;;;;;;3.37;1.70;;;14.70;67.10;;;;;;606850;232;26829;-66
2022/05/25 04:53:23;;;;;;;1.90;1.40;;;14.80;66.90;;;;;;606454;235;26633;-66
2022/05/25 04:58:24;;;;;;;1.60;1.50;;;14.80;66.40;;;;;;606047;234;26828;-66
2022/05/25 05:00:51;;;;;;;1.50;1.50;;;14.80;66.40;;;;;;606472;235;26590;-66
2022/05/25 05:03:18;;;;;;;3.25;1.70;;;14.70;65.70;;;;;;605379;233;26845;-66
2022/05/25 05:05:45;;;;;;;1.80;1.70;;;14.80;66.30;;;;;;607948;235;26616;-67
2022/05/25 05:08:13;;;;;;;1.58;1.48;;;14.90;66.80;;;;;;604887;236;26859;-67
2022/05/25 05:10:40;;;;;;;1.80;1.70;;;15.00;68.50;;;;;;604322;236;26557;-67
2022/05/25 05:13:08;;;;;;;1.55;1.55;;;15.10;65.10;;;;;;606065;233;26605;-67
2022/05/25 05:15:36;;;;;;;1.42;1.42;;;15.20;65.00;;;;;;605888;236;26581;-67
2022/05/25 05:18:05;;;;;;;1.20;1.20;;;15.30;65.30;;;;;;604605;236;26594;-67
2022/05/25 05:20:33;;;;;;;2.87;1.65;;;15.40;64.90;;;;;;604716;235;26919;-67
2022/05/25 05:23:01;;;;;;;1.33;1.23;;;15.30;63.90;;;;;;609112;235;27324;-67
2022/05/25 05:25:28;;;;;;;1.58;1.48;;;15.30;63.90;;;;;;608871;234;26999;-67
2022/05/25 05:27:55;;;;;;;2.00;1.70;;;15.40;63.50;;;;;;604504;235;26643;-67
2022/05/25 05:30:22;;;;;;;1.40;1.30;;;15.60;62.90;;;;;;603254;236;26969;-67
2022/05/25 05:32:49;;;;;;;1.58;1.48;;;15.70;62.50;;;;;;605238;235;26613;-69
2022/05/25 05:35:17;;;;;;;1.87;1.77;;;15.90;62.40;;;;;;605310;235;26641;-69
2022/05/25 05:37:46;;;;;;;4.20;2.12;;;16.00;61.70;;;;;;603130;236;26581;-73
2022/05/25 05:40:13;;;;;;;3.45;2.10;;;16.00;60.90;;;;;;606278;235;26887;-69
2022/05/25 05:42:41;;;;;;;3.22;1.60;;;15.90;60.00;;;;;;606244;235;26602;-69
2022/05/25 05:45:11;;;;;;;2.25;1.30;;;16.00;61.00;;;;;;607286;235;26636;-69
2022/05/25 05:47:39;;;;;;;1.52;1.42;;;16.00;60.90;;;;;;605648;235;26855;-69
2022/05/25 05:50:06;;;;;;;1.62;1.52;;;16.00;60.80;;;;;;604908;234;26643;-69
2022/05/25 05:52:33;;;;;;;1.40;1.30;;;16.20;60.60;;;;;;604142;236;26626;-69
2022/05/25 05:55:01;;;;;;;1.60;1.50;;;16.20;60.40;;;;;;606411;235;27305;-69
2022/05/25 05:57:28;;;;;;;1.30;1.25;;;16.40;60.90;;;;;;606360;235;26647;-69
2022/05/25 05:59:55;;;;;;;1.40;1.40;;;16.60;59.90;;;;;;605699;235;26917;-69
2022/05/25 06:02:23;;;;;;;2.67;1.52;;;16.70;60.20;;;;;;606227;235;26629;-69
2022/05/25 06:04:51;;;;;;;2.78;1.70;;;16.90;60.40;;;;;;606204;233;26666;-69
2022/05/25 06:07:19;;;;;;;1.80;1.70;;;17.20;59.40;;;;;;607838;234;26638;-69
2022/05/25 06:09:46;;;;;;;1.52;1.42;;;17.20;59.40;;;;;;604025;237;26617;-69
2022/05/25 06:12:14;;;;;;;1.60;1.50;;;17.10;59.30;;;;;;606146;234;26641;-69
2022/05/25 06:14:40;;;;;;;2.62;1.70;;;17.10;59.40;;;;;;607322;231;26849;-69
2022/05/25 06:19:41;;;;;;;1.55;1.42;;;17.00;58.90;;;;;;606856;235;26841;-69
2022/05/25 06:22:12;;;;;;;1.58;1.50;;;17.00;58.80;;;;;;604165;236;26584;-69
2022/05/25 06:24:53;;;;;;;1.62;1.52;;;16.90;59.20;;;;;;604612;234;26586;-69
2022/05/25 06:27:21;;;;;;;1.60;1.48;;;17.10;59.00;;;;;;605957;235;26819;-69
2022/05/25 06:29:48;;;;;;;1.70;1.30;;;17.20;58.40;;;;;;608280;235;26602;-69
2022/05/25 06:32:16;;;;;;;2.00;1.52;;;17.30;58.70;;;;;;605895;236;26841;-69
2022/05/25 06:34:47;;;;;;;1.70;1.45;;;17.60;58.00;;;;;;604961;235;26965;-69
2022/05/25 06:37:13;;;;;;;1.77;1.50;;;17.60;58.70;;;;;;604128;235;26579;-69
2022/05/25 06:39:41;;;;;;;1.40;1.30;;;17.60;58.30;;;;;;608679;233;26628;-69
2022/05/25 06:42:08;;;;;;;1.30;1.30;;;18.00;58.00;;;;;;607754;235;26844;-69
2022/05/25 06:44:35;;;;;;;1.48;1.37;;;18.20;57.30;;;;;;603718;234;26836;-69
2022/05/25 06:47:03;;;;;;;1.50;1.40;;;18.30;57.10;;;;;;606012;235;26632;-69
2022/05/25 06:49:31;;;;;;;1.70;1.60;;;18.30;57.10;;;;;;604451;236;26840;-69
2022/05/25 06:51:58;;;;;;;1.48;1.37;;;18.30;57.20;;;;;;605526;235;26597;-69
2022/05/25 06:54:25;;;;;;;1.20;1.20;;;18.40;57.10;;;;;;606776;235;26888;-69
2022/05/25 06:56:53;;;;;;;1.62;1.52;;;18.60;57.00;;;;;;603515;234;26637;-69
2022/05/25 06:59:21;;;;;;;1.45;1.40;;;18.70;56.90;;;;;;603994;235;26585;-69
2022/05/25 07:01:49;;;;;;;5.15;1.60;;;18.80;56.20;;;;;;603244;236;26675;-70
2022/05/25 07:04:17;;;;;;;2.20;1.80;;;18.80;55.60;;;;;;604869;236;26624;-67
2022/05/25 07:06:45;;;;;;;6.70;1.80;;;18.80;55.80;;;;;;606977;235;26599;-75
2022/05/25 07:09:12;;;;;;;2.65;1.62;;;18.80;55.40;;;;;;607906;235;26587;-69
2022/05/25 07:11:41;;;;;;;3.05;1.48;;;18.40;55.90;;;;;;606834;235;26653;-67
2022/05/25 07:14:07;;;;;;;3.08;1.50;;;18.60;56.60;;;;;;605809;233;26860;-70
2022/05/25 07:16:35;;;;;;;2.60;1.50;;;18.60;56.60;;;;;;602467;237;26880;-69
2022/05/25 07:19:02;;;;;;;2.25;1.67;;;18.70;56.20;;;;;;607422;234;26671;-69
2022/05/25 07:21:31;;;;;;;5.70;2.08;;;18.40;56.10;;;;;;606455;234;26945;-69
2022/05/25 07:23:56;;;;;;;2.33;1.70;;;18.10;56.50;;;;;;605662;235;26630;-69
2022/05/25 07:26:23;;;;;;;6.15;1.77;;;18.40;56.50;;;;;;604309;236;26844;-70
2022/05/25 07:28:51;;;;;;;2.22;1.60;;;18.40;57.00;;;;;;605661;235;26574;-69
2022/05/25 07:31:21;;;;;;;5.93;1.58;;;18.50;56.60;;;;;;593014;240;26654;-69
2022/05/25 07:33:47;;;;;;;5.95;1.77;;;18.30;56.40;;;;;;592698;240;26676;-69
2022/05/25 07:36:15;;;;;;;2.00;1.83;;;18.40;56.60;;;;;;593707;239;26866;-68
2022/05/25 07:38:43;;;;;;;2.95;1.35;;;18.50;56.80;;;;;;596416;239;26659;-68
2022/05/25 07:41:10;;;;;;;1.17;1.17;;;18.70;56.70;;;;;;588825;243;26875;-68
2022/05/25 07:43:37;;;;;;;1.58;1.08;;;18.60;56.60;;;;;;592345;240;26953;-66
2022/05/25 07:46:04;;;;;;;1.70;1.60;;;18.50;56.20;;;;;;593790;239;26603;-66
2022/05/25 07:48:31;;;;;;;2.85;1.30;;;18.60;56.40;;;;;;593520;239;26857;-69
2022/05/25 07:50:59;;;;;;;1.15;1.10;;;18.60;56.30;;;;;;594251;238;26660;-69
2022/05/25 07:56:00;;;;;;;8.48;2.10;;;19.10;56.20;;;;;;593304;240;26634;-69
2022/05/25 07:58:26;;;;;;;16.85;2.65;;;19.00;56.10;;;;;;593007;239;27034;-68
2022/05/25 08:00:53;;;;;;;6.97;2.00;;;19.20;55.70;;;;;;595618;239;26879;-70
2022/05/25 08:05:56;;;;;;;5.47;2.17;;;19.30;55.90;;;;;;594607;239;26885;-67
2022/05/25 08:08:22;;;;;;;4.87;1.92;;;19.30;55.60;;;;;;594132;239;26661;-68
2022/05/25 08:10:52;;;;;;;6.40;2.15;;;19.20;55.40;;;;;;590804;239;26661;-67
2022/05/25 08:13:19;;;;;;;9.82;2.25;;;19.20;55.40;;;;;;593501;240;26702;-66
2022/05/25 08:15:47;;;;;;;6.60;2.15;;;19.20;55.70;;;;;;592014;237;26897;-67
2022/05/25 08:18:14;;;;;;;6.45;2.00;;;19.00;55.70;;;;;;595311;239;26623;-69
2022/05/25 08:20:41;;;;;;;1.20;1.20;;;18.90;55.40;;;;;;598197;239;26912;-69
2022/05/25 08:23:08;;;;;;;1.83;1.48;;;19.00;56.00;;;;;;593220;239;26699;-67
2022/05/25 08:25:35;;;;;;;5.97;1.70;;;19.00;55.70;;;;;;592583;239;26666;-68
2022/05/25 08:28:03;;;;;;;2.25;1.87;;;18.80;55.50;;;;;;593936;236;26658;-68
2022/05/25 08:30:32;;;;;;;4.43;2.20;;;18.80;55.50;;;;;;593542;238;26857;-69
2022/05/25 08:32:58;;;;;;;2.00;1.42;;;19.00;55.40;;;;;;593647;242;26668;-69
2022/05/25 08:35:27;;;;;;;4.20;1.60;;;18.90;55.20;;;;;;593708;238;26606;-70
2022/05/25 08:37:54;;;;;;;4.50;1.95;;;19.00;55.20;;;;;;595694;238;26603;-68
2022/05/25 08:40:22;;;;;;;2.67;1.60;;;19.10;55.00;;;;;;596075;238;26625;-68
2022/05/25 08:42:53;;;;;;;6.60;1.80;;;18.90;55.30;;;;;;595912;239;26580;-69
2022/05/25 08:45:22;;;;;;;3.12;1.20;;;19.00;55.40;;;;;;595341;239;26613;-68
2022/05/25 08:47:49;;;;;;;5.95;1.60;;;19.10;55.20;;;;;;596784;236;26613;-69
2022/05/25 08:50:17;;;;;;;1.85;1.10;;;19.10;55.20;;;;;;594842;239;26845;-68
2022/05/25 08:52:45;;;;;;;1.25;1.25;;;19.20;55.30;;;;;;593261;239;26626;-67
2022/05/25 08:55:13;;;;;;;1.50;1.27;;;19.20;55.90;;;;;;594843;240;26596;-67
2022/05/25 08:57:41;;;;;;;2.40;1.58;;;19.20;54.70;;;;;;604080;235;26590;-67
2022/05/25 09:00:09;;;;;;;2.67;1.60;;;19.20;54.80;;;;;;604109;236;26590;-71
2022/05/25 09:02:42;;;;;;;1.52;1.35;;;19.20;54.80;;;;;;604810;234;26611;-69
2022/05/25 09:05:10;;;;;;;6.70;2.00;;;19.00;54.90;;;;;;605257;235;26889;-68
2022/05/25 09:07:42;;;;;;;4.00;1.40;;;19.00;55.10;;;;;;604901;236;26614;-68
2022/05/25 09:10:10;;;;;;;2.45;1.70;;;19.00;55.10;;;;;;603640;238;26562;-66
2022/05/25 09:12:39;;;;;;;2.72;1.50;;;19.20;55.20;;;;;;603776;238;26840;-70
2022/05/25 09:15:09;;;;;;;5.85;1.80;;;19.20;55.20;;;;;;606396;236;26581;-66
2022/05/25 09:17:48;;;;;;;1.05;1.05;;;19.50;55.10;;;;;;607736;236;26593;-67
2022/05/25 09:20:18;;;;;;;4.65;1.92;;;19.60;54.70;;;;;;610251;236;26598;-67
2022/05/25 09:22:45;;;;;;;6.30;1.77;;;20.00;55.40;;;;;;607417;236;26619;-66
2022/05/25 09:25:12;;;;;;;4.87;1.95;;;20.20;53.90;;;;;;604464;238;26817;-66
2022/05/25 09:27:40;;;;;;;2.75;1.67;;;20.30;53.50;;;;;;602989;235;26576;-67
2022/05/25 09:30:07;;;;;;;3.03;1.80;;;19.90;53.60;;;;;;602288;236;27302;-69
2022/05/25 09:32:37;;;;;;;3.90;2.10;;;19.60;53.00;;;;;;606957;236;26612;-70
2022/05/25 09:35:16;;;;;;;1.90;1.80;;;19.50;52.30;;;;;;601483;236;26666;-71
2022/05/25 09:37:50;;;;;;;1.92;1.35;;;19.20;52.20;;;;;;606789;232;26597;-72
2022/05/25 09:40:22;;;;;;;5.18;1.98;;;19.20;52.20;;;;;;608927;235;26590;-72
2022/05/25 09:42:50;;;;;;;2.45;1.40;;;19.10;52.70;;;;;;607102;234;26665;-71
2022/05/25 09:45:17;;;;;;;2.55;1.40;;;19.10;52.70;;;;;;606163;234;26644;-71
2022/05/25 09:47:44;;;;;;;2.72;1.95;;;19.00;52.80;;;;;;602074;236;26948;-73
2022/05/25 09:50:15;;;;;;;4.55;1.60;;;19.80;52.20;;;;;;608768;235;26597;-72
2022/05/25 09:52:43;;;;;;;2.28;1.17;;;19.70;52.10;;;;;;601867;234;27269;-72
2022/05/25 09:55:11;;;;;;;4.70;1.92;;;20.20;52.30;;;;;;603786;235;26607;-73
2022/05/25 09:57:41;;;;;;;4.00;1.58;;;20.70;52.30;;;;;;602734;235;26573;-73
2022/05/25 10:00:10;;;;;;;1.52;1.42;;;20.90;51.30;;;;;;604135;238;26587;-71
2022/05/25 10:02:42;;;;;;;2.15;1.52;;;20.90;49.90;;;;;;605819;236;26634;-71
2022/05/25 10:05:14;;;;;;;2.33;1.05;;;20.90;49.10;;;;;;604986;236;26622;-71
2022/05/25 10:07:56;;;;;;;4.60;1.60;;;21.20;49.80;;;;;;608829;236;26827;-71
2022/05/25 10:10:25;;;;;;;7.18;1.77;;;21.40;49.00;;;;;;614042;234;26787;-74
2022/05/25 10:13:13;;;;;;;3.17;1.10;;;21.20;48.80;;;;;;607497;235;26555;-72
2022/05/25 10:15:39;;;;;;;3.37;1.60;;;21.20;48.90;;;;;;600370;239;26703;-72
2022/05/25 10:18:08;;;;;;;2.45;2.00;;;21.20;48.50;;;;;;604008;237;26585;-71
2022/05/25 10:20:44;;;;;;;6.72;2.85;;;21.00;48.80;;;;;;606107;236;26836;-75
2022/05/25 10:23:13;;;;;;;25.25;5.80;;;21.20;47.40;;;;;;606489;234;27416;-76
2022/05/25 10:25:42;;;;;;;26.75;7.18;;;21.20;47.40;;;;;;600964;238;26646;-75
2022/05/25 10:28:17;;;;;;;17.55;6.35;;;20.80;48.40;;;;;;605417;236;26642;-73
2022/05/25 10:38:30;;;;;;;3.20;2.00;;;20.50;49.00;;;;;;603652;236;26597;-70
2022/05/25 10:40:58;;;;;;;6.37;2.33;;;20.30;49.00;;;;;;601638;232;26594;-71
2022/05/25 10:43:25;;;;;;;10.57;4.28;;;20.30;49.00;;;;;;605841;236;26595;-71
2022/05/25 10:45:52;;;;;;;12.13;4.60;;;20.40;48.80;;;;;;604915;236;26582;-66
2022/05/25 10:48:30;;;;;;;28.52;6.75;;;20.50;48.60;;;;;;608138;233;26630;-66
2022/05/25 10:50:59;;;;;;;96.75;20.80;;;20.40;48.80;;;;;;609732;235;26636;-67
2022/05/25 10:53:31;;;;;;;95.32;19.65;;;20.30;48.70;;;;;;610384;235;26671;-65
2022/05/25 10:56:10;;;;;;;73.35;17.65;;;20.10;47.80;;;;;;609928;235;26587;-66
2022/05/25 10:58:56;;;;;;;79.53;16.48;;;20.10;48.50;;;;;;610672;235;27010;-65
2022/05/25 11:01:29;;;;;;;54.78;14.95;;;20.30;48.10;;;;;;609289;236;26567;-66
2022/05/25 11:04:15;;;;;;;50.63;13.43;;;20.30;48.40;;;;;;610331;236;26594;-65
2022/05/25 11:06:47;;;;;;;45.15;12.37;;;20.40;48.80;;;;;;599965;236;26605;-66
2022/05/25 11:09:22;;;;;;;10.48;4.25;;;21.00;48.70;;;;;;609698;236;26858;-65
2022/05/25 11:12:07;;;;;;;17.05;4.80;;;21.50;47.90;;;;;;609909;236;26670;-65
2022/05/25 11:14:43;;;;;;;11.52;3.70;;;21.90;47.60;;;;;;602684;236;26681;-66
2022/05/25 11:17:16;;;;;;;5.28;2.60;;;22.10;46.10;;;;;;609748;236;26857;-65
2022/05/25 11:19:45;;;;;;;11.27;3.72;;;22.10;45.90;;;;;;609109;236;26873;-66
2022/05/25 11:22:28;;;;;;;13.98;3.92;;;21.70;46.30;;;;;;609158;236;26632;-65
2022/05/25 11:25:13;;;;;;;6.90;2.78;;;21.40;45.30;;;;;;606454;236;27198;-66
2022/05/25 11:27:58;;;;;;;9.93;3.55;;;21.40;45.80;;;;;;609597;236;26851;-66
2022/05/25 11:30:29;;;;;;;9.50;3.47;;;21.40;45.90;;;;;;608819;236;26616;-66
2022/05/25 11:33:14;;;;;;;11.55;3.72;;;21.30;45.70;;;;;;609540;236;26593;-66
2022/05/25 11:35:46;;;;;;;8.02;3.03;;;21.30;45.30;;;;;;606743;236;26813;-66
2022/05/25 11:38:29;;;;;;;7.60;2.97;;;21.20;44.50;;;;;;609669;236;26814;-66
2022/05/25 11:41:17;;;;;;;12.00;3.10;;;21.40;44.10;;;;;;601834;236;26888;-65
2022/05/25 11:43:56;;;;;;;3.80;2.40;;;21.60;43.60;;;;;;609362;236;26592;-66
2022/05/25 11:46:40;;;;;;;6.70;2.60;;;21.60;43.90;;;;;;609366;236;26610;-65
2022/05/25 11:49:07;;;;;;;8.10;2.83;;;21.80;44.40;;;;;;609673;236;26593;-65
2022/05/25 11:51:40;;;;;;;5.00;2.30;;;22.00;44.50;;;;;;609136;236;26831;-66
2022/05/25 11:54:16;;;;;;;5.65;2.60;;;22.60;44.20;;;;;;609150;236;26648;-65
2022/05/25 11:57:02;;;;;;;4.22;2.40;;;23.10;43.90;;;;;;609274;236;26603;-65
2022/05/25 11:59:52;;;;;;;3.12;2.30;;;23.10;42.90;;;;;;607886;235;26612;-65
2022/05/25 12:02:24;;;;;;;4.65;2.37;;;22.70;42.20;;;;;;602488;238;26561;-66
2022/05/25 12:05:00;;;;;;;5.40;2.22;;;22.30;42.70;;;;;;601074;234;26865;-65
2022/05/25 12:07:32;;;;;;;6.35;2.17;;;22.40;43.00;;;;;;602063;238;26972;-66
2022/05/25 12:10:04;;;;;;;6.47;2.33;;;21.90;43.10;;;;;;602165;238;26551;-65
2022/05/25 12:12:36;;;;;;;5.62;2.40;;;21.50;43.50;;;;;;602098;239;26814;-66
2022/05/25 12:15:05;;;;;;;4.75;2.08;;;21.80;43.30;;;;;;602343;239;26657;-65
2022/05/25 12:17:42;;;;;;;2.30;1.50;;;21.60;43.40;;;;;;601948;239;26585;-66
2022/05/25 12:20:10;;;;;;;4.37;1.92;;;22.10;43.00;;;;;;601603;239;26586;-65
2022/05/25 12:22:38;;;;;;;2.55;1.52;;;22.00;43.00;;;;;;601828;237;26594;-65
2022/05/25 12:25:08;;;;;;;2.15;1.23;;;22.70;44.00;;;;;;601687;239;26772;-71
2022/05/25 12:27:35;;;;;;;1.50;1.35;;;22.70;44.00;;;;;;601697;237;26616;-71
2022/05/25 12:30:03;;;;;;;1.23;1.12;;;23.10;43.30;;;;;;601623;239;26578;-71
2022/05/25 12:32:30;;;;;;;1.90;1.65;;;23.70;43.90;;;;;;601620;236;26623;-71
2022/05/25 12:34:57;;;;;;;1.80;1.40;;;23.70;41.80;;;;;;601816;237;26603;-72
2022/05/25 12:37:27;;;;;;;3.00;1.67;;;23.80;42.10;;;;;;601517;237;26634;-70
2022/05/25 12:39:54;;;;;;;5.65;1.62;;;23.80;42.10;;;;;;601237;239;26602;-72
2022/05/25 12:42:37;;;;;;;1.37;1.27;;;23.80;42.20;;;;;;601606;237;26852;-72
2022/05/25 12:50:36;;;;;;;2.17;1.37;;;23.20;42.60;;;;;;601537;237;26648;-71
2022/05/25 12:53:26;;;;;;;2.05;1.45;;;23.00;42.30;;;;;;601276;239;26685;-71
2022/05/25 12:55:54;;;;;;;2.25;1.52;;;22.80;44.10;;;;;;597164;238;26653;-71
2022/05/25 12:58:33;;;;;;;2.67;1.40;;;22.60;43.30;;;;;;601190;239;26871;-71
2022/05/25 13:01:01;;;;;;;2.42;1.50;;;22.90;43.30;;;;;;601548;237;26862;-71
2022/05/25 13:03:34;;;;;;;1.33;1.10;;;23.60;43.10;;;;;;601429;238;26649;-72
2022/05/25 13:06:00;;;;;;;2.28;1.60;;;24.00;42.50;;;;;;601453;239;26634;-66
2022/05/25 13:08:55;;;;;;;2.58;1.75;;;25.40;40.90;;;;;;601554;239;26647;-66
2022/05/25 13:11:33;;;;;;;1.95;1.42;;;25.40;40.90;;;;;;600677;237;26667;-66
2022/05/25 13:14:01;;;;;;;2.75;1.45;;;25.70;40.10;;;;;;602702;238;26697;-65
2022/05/25 13:16:56;;;;;;;1.80;1.45;;;26.20;39.50;;;;;;602406;237;26594;-66
2022/05/25 13:19:39;;;;;;;2.72;1.37;;;26.20;39.50;;;;;;602309;237;26830;-66
2022/05/25 13:22:06;;;;;;;1.80;1.20;;;28.30;39.20;;;;;;602428;237;26624;-66
2022/05/25 13:24:42;;;;;;;3.35;1.50;;;29.10;36.50;;;;;;602190;235;26629;-65
2022/05/25 13:27:13;;;;;;;2.67;1.65;;;28.30;36.90;;;;;;602215;239;26577;-65
2022/05/25 13:30:02;;;;;;;1.20;1.10;;;27.20;36.50;;;;;;601573;239;26589;-65